sensor_id;sensor_type;location;lat;lon;timestamp;P1;durP1;ratioP1;P2;durP2;ratioP2
8213;SDS011;4148;47.974;7.824;2023-07-29T00:01:19;2.10;;;1.30;;
8213;SDS011;4148;47.974;7.824;2023-07-29T00:03:49;1.73;;;1.30;;
8213;SDS011;4148;47.974;7.824;2023-07-29T00:06:17;3.37;;;1.43;;
8213;SDS011;4148;47.974;7.824;2023-07-29T00:08:44;2.10;;;1.23;;
8213;SDS011;4148;47.974;7.824;2023-07-29T00:11:12;3.73;;;1.43;;
8213;SDS011;4148;47.974;7.824;2023-07-29T00:13:40;2.50;;;1.30;;
8213;SDS011;4148;47.974;7.824;2023-07-29T00:16:08;7.03;;;1.63;;
8213;SDS011;4148;47.974;7.824;2023-07-29T00:18:36;4.20;;;1.70;;
8213;SDS011;4148;47.974;7.824;2023-07-29T00:21:06;2.97;;;1.50;;
8213;SDS011;4148;47.974;7.824;2023-07-29T00:23:34;4.47;;;1.30;;
8213;SDS011;4148;47.974;7.824;2023-07-29T00:26:01;3.63;;;1.53;;
8213;SDS011;4148;47.974;7.824;2023-07-29T00:28:29;5.37;;;1.30;;
8213;SDS011;4148;47.974;7.824;2023-07-29T00:30:57;2.43;;;1.30;;
8213;SDS011;4148;47.974;7.824;2023-07-29T00:33:25;3.53;;;1.57;;
8213;SDS011;4148;47.974;7.824;2023-07-29T00:35:53;3.37;;;1.40;;
8213;SDS011;4148;47.974;7.824;2023-07-29T00:38:23;2.37;;;1.30;;
8213;SDS011;4148;47.974;7.824;2023-07-29T00:40:50;2.97;;;1.40;;
8213;SDS011;4148;47.974;7.824;2023-07-29T00:43:18;1.67;;;1.30;;
8213;SDS011;4148;47.974;7.824;2023-07-29T00:45:46;1.70;;;1.23;;
8213;SDS011;4148;47.974;7.824;2023-07-29T00:48:15;2.57;;;1.40;;
8213;SDS011;4148;47.974;7.824;2023-07-29T00:50:43;1.90;;;1.40;;
8213;SDS011;4148;47.974;7.824;2023-07-29T00:53:11;4.07;;;1.97;;
8213;SDS011;4148;47.974;7.824;2023-07-29T00:55:40;5.80;;;1.60;;
8213;SDS011;4148;47.974;7.824;2023-07-29T00:58:08;5.53;;;1.70;;
8213;SDS011;4148;47.974;7.824;2023-07-29T01:00:37;2.33;;;1.40;;
8213;SDS011;4148;47.974;7.824;2023-07-29T01:03:05;5.23;;;1.80;;
8213;SDS011;4148;47.974;7.824;2023-07-29T01:05:35;4.43;;;1.73;;
8213;SDS011;4148;47.974;7.824;2023-07-29T01:08:09;2.57;;;1.73;;
8213;SDS011;4148;47.974;7.824;2023-07-29T01:10:46;2.13;;;1.83;;
8213;SDS011;4148;47.974;7.824;2023-07-29T01:13:27;2.53;;;1.57;;
8213;SDS011;4148;47.974;7.824;2023-07-29T01:16:05;2.20;;;1.30;;
8213;SDS011;4148;47.974;7.824;2023-07-29T01:18:39;1.73;;;1.20;;
8213;SDS011;4148;47.974;7.824;2023-07-29T01:21:09;4.67;;;1.50;;
8213;SDS011;4148;47.974;7.824;2023-07-29T01:23:41;3.27;;;1.63;;
8213;SDS011;4148;47.974;7.824;2023-07-29T01:26:09;2.90;;;1.53;;
8213;SDS011;4148;47.974;7.824;2023-07-29T01:28:37;2.70;;;1.10;;
8213;SDS011;4148;47.974;7.824;2023-07-29T01:31:06;4.13;;;1.30;;
8213;SDS011;4148;47.974;7.824;2023-07-29T01:33:39;5.30;;;1.50;;
8213;SDS011;4148;47.974;7.824;2023-07-29T01:36:13;3.53;;;2.00;;
8213;SDS011;4148;47.974;7.824;2023-07-29T01:38:50;3.77;;;1.83;;
8213;SDS011;4148;47.974;7.824;2023-07-29T01:41:19;3.90;;;1.70;;
8213;SDS011;4148;47.974;7.824;2023-07-29T01:43:48;2.63;;;1.70;;
8213;SDS011;4148;47.974;7.824;2023-07-29T01:46:17;3.60;;;1.80;;
8213;SDS011;4148;47.974;7.824;2023-07-29T01:48:45;6.17;;;1.70;;
8213;SDS011;4148;47.974;7.824;2023-07-29T01:51:13;3.13;;;1.50;;
8213;SDS011;4148;47.974;7.824;2023-07-29T01:53:40;3.27;;;1.87;;
8213;SDS011;4148;47.974;7.824;2023-07-29T01:56:10;2.63;;;1.70;;
8213;SDS011;4148;47.974;7.824;2023-07-29T01:58:38;2.33;;;1.77;;
8213;SDS011;4148;47.974;7.824;2023-07-29T02:01:05;2.10;;;1.37;;
8213;SDS011;4148;47.974;7.824;2023-07-29T02:03:33;3.30;;;1.60;;
8213;SDS011;4148;47.974;7.824;2023-07-29T02:06:01;4.33;;;1.60;;
8213;SDS011;4148;47.974;7.824;2023-07-29T02:08:30;2.47;;;1.40;;
8213;SDS011;4148;47.974;7.824;2023-07-29T02:10:57;2.10;;;1.70;;
8213;SDS011;4148;47.974;7.824;2023-07-29T02:13:27;1.87;;;1.30;;
8213;SDS011;4148;47.974;7.824;2023-07-29T02:15:54;2.60;;;1.60;;
8213;SDS011;4148;47.974;7.824;2023-07-29T02:18:22;1.93;;;1.50;;
8213;SDS011;4148;47.974;7.824;2023-07-29T02:20:50;5.03;;;1.50;;
8213;SDS011;4148;47.974;7.824;2023-07-29T02:23:18;3.90;;;1.60;;
8213;SDS011;4148;47.974;7.824;2023-07-29T02:25:46;3.10;;;1.47;;
8213;SDS011;4148;47.974;7.824;2023-07-29T02:28:14;1.90;;;1.40;;
8213;SDS011;4148;47.974;7.824;2023-07-29T02:30:43;2.10;;;1.53;;
8213;SDS011;4148;47.974;7.824;2023-07-29T02:33:11;2.47;;;1.50;;
8213;SDS011;4148;47.974;7.824;2023-07-29T02:35:39;3.50;;;1.60;;
8213;SDS011;4148;47.974;7.824;2023-07-29T02:38:07;2.30;;;1.50;;
8213;SDS011;4148;47.974;7.824;2023-07-29T02:40:35;2.10;;;1.47;;
8213;SDS011;4148;47.974;7.824;2023-07-29T02:43:02;4.33;;;1.83;;
8213;SDS011;4148;47.974;7.824;2023-07-29T02:45:30;4.73;;;1.60;;
8213;SDS011;4148;47.974;7.824;2023-07-29T02:47:59;2.37;;;1.60;;
8213;SDS011;4148;47.974;7.824;2023-07-29T02:50:27;1.90;;;1.57;;
8213;SDS011;4148;47.974;7.824;2023-07-29T02:52:55;2.70;;;1.50;;
8213;SDS011;4148;47.974;7.824;2023-07-29T02:55:23;4.90;;;2.03;;
8213;SDS011;4148;47.974;7.824;2023-07-29T02:57:51;3.40;;;1.60;;
8213;SDS011;4148;47.974;7.824;2023-07-29T03:00:19;2.03;;;1.53;;
8213;SDS011;4148;47.974;7.824;2023-07-29T03:02:47;2.73;;;1.70;;
8213;SDS011;4148;47.974;7.824;2023-07-29T03:05:16;2.80;;;1.50;;
8213;SDS011;4148;47.974;7.824;2023-07-29T03:07:44;5.10;;;1.47;;
8213;SDS011;4148;47.974;7.824;2023-07-29T03:10:12;3.20;;;1.63;;
8213;SDS011;4148;47.974;7.824;2023-07-29T03:12:41;3.30;;;1.60;;
8213;SDS011;4148;47.974;7.824;2023-07-29T03:15:09;2.53;;;1.77;;
8213;SDS011;4148;47.974;7.824;2023-07-29T03:17:37;18.03;;;2.43;;
8213;SDS011;4148;47.974;7.824;2023-07-29T03:20:05;6.00;;;1.60;;
8213;SDS011;4148;47.974;7.824;2023-07-29T03:22:36;2.30;;;1.50;;
8213;SDS011;4148;47.974;7.824;2023-07-29T03:25:04;3.73;;;2.40;;
8213;SDS011;4148;47.974;7.824;2023-07-29T03:27:32;2.13;;;1.80;;
8213;SDS011;4148;47.974;7.824;2023-07-29T03:30:02;1.90;;;1.60;;
8213;SDS011;4148;47.974;7.824;2023-07-29T03:32:31;6.17;;;1.90;;
8213;SDS011;4148;47.974;7.824;2023-07-29T03:34:59;3.77;;;1.77;;
8213;SDS011;4148;47.974;7.824;2023-07-29T03:37:27;2.73;;;1.63;;
8213;SDS011;4148;47.974;7.824;2023-07-29T03:39:56;3.43;;;1.70;;
8213;SDS011;4148;47.974;7.824;2023-07-29T03:42:26;3.07;;;2.00;;
8213;SDS011;4148;47.974;7.824;2023-07-29T03:44:53;2.10;;;1.70;;
8213;SDS011;4148;47.974;7.824;2023-07-29T03:47:21;2.73;;;1.70;;
8213;SDS011;4148;47.974;7.824;2023-07-29T03:49:49;2.17;;;1.80;;
8213;SDS011;4148;47.974;7.824;2023-07-29T03:52:17;4.13;;;2.10;;
8213;SDS011;4148;47.974;7.824;2023-07-29T03:54:45;2.27;;;1.90;;
8213;SDS011;4148;47.974;7.824;2023-07-29T03:57:14;3.00;;;1.97;;
8213;SDS011;4148;47.974;7.824;2023-07-29T03:59:42;3.03;;;1.63;;
8213;SDS011;4148;47.974;7.824;2023-07-29T04:02:10;3.70;;;1.97;;
8213;SDS011;4148;47.974;7.824;2023-07-29T04:04:38;2.87;;;1.90;;
8213;SDS011;4148;47.974;7.824;2023-07-29T04:07:08;2.93;;;1.67;;
8213;SDS011;4148;47.974;7.824;2023-07-29T04:09:36;3.10;;;2.57;;
8213;SDS011;4148;47.974;7.824;2023-07-29T04:12:04;2.23;;;2.00;;
8213;SDS011;4148;47.974;7.824;2023-07-29T04:14:33;2.43;;;2.00;;
8213;SDS011;4148;47.974;7.824;2023-07-29T04:17:01;2.43;;;2.00;;
8213;SDS011;4148;47.974;7.824;2023-07-29T04:19:29;6.83;;;2.00;;
8213;SDS011;4148;47.974;7.824;2023-07-29T04:21:57;3.67;;;2.23;;
8213;SDS011;4148;47.974;7.824;2023-07-29T04:24:25;3.53;;;2.10;;
8213;SDS011;4148;47.974;7.824;2023-07-29T04:26:53;2.60;;;2.23;;
8213;SDS011;4148;47.974;7.824;2023-07-29T04:29:21;2.23;;;1.90;;
8213;SDS011;4148;47.974;7.824;2023-07-29T04:31:51;2.50;;;2.23;;
8213;SDS011;4148;47.974;7.824;2023-07-29T04:34:19;3.83;;;2.30;;
8213;SDS011;4148;47.974;7.824;2023-07-29T04:36:47;2.77;;;1.87;;
8213;SDS011;4148;47.974;7.824;2023-07-29T04:39:15;2.50;;;2.00;;
8213;SDS011;4148;47.974;7.824;2023-07-29T04:41:43;3.17;;;2.00;;
8213;SDS011;4148;47.974;7.824;2023-07-29T04:44:11;2.67;;;1.87;;
8213;SDS011;4148;47.974;7.824;2023-07-29T04:46:39;2.77;;;2.13;;
8213;SDS011;4148;47.974;7.824;2023-07-29T04:49:08;2.90;;;1.90;;
8213;SDS011;4148;47.974;7.824;2023-07-29T04:51:36;2.43;;;2.03;;
8213;SDS011;4148;47.974;7.824;2023-07-29T04:54:04;5.83;;;2.90;;
8213;SDS011;4148;47.974;7.824;2023-07-29T04:56:32;2.90;;;2.23;;
8213;SDS011;4148;47.974;7.824;2023-07-29T04:58:59;3.10;;;2.37;;
8213;SDS011;4148;47.974;7.824;2023-07-29T05:01:27;6.60;;;2.00;;
8213;SDS011;4148;47.974;7.824;2023-07-29T05:03:55;2.50;;;1.97;;
8213;SDS011;4148;47.974;7.824;2023-07-29T05:06:24;2.40;;;2.10;;
8213;SDS011;4148;47.974;7.824;2023-07-29T05:08:52;2.27;;;2.07;;
8213;SDS011;4148;47.974;7.824;2023-07-29T05:11:20;4.50;;;2.67;;
8213;SDS011;4148;47.974;7.824;2023-07-29T05:13:48;2.33;;;2.13;;
8213;SDS011;4148;47.974;7.824;2023-07-29T05:16:16;3.20;;;1.90;;
8213;SDS011;4148;47.974;7.824;2023-07-29T05:18:44;2.93;;;2.00;;
8213;SDS011;4148;47.974;7.824;2023-07-29T05:21:12;3.20;;;2.03;;
8213;SDS011;4148;47.974;7.824;2023-07-29T05:23:42;2.47;;;2.27;;
8213;SDS011;4148;47.974;7.824;2023-07-29T05:26:09;2.83;;;2.10;;
8213;SDS011;4148;47.974;7.824;2023-07-29T05:28:37;2.50;;;1.90;;
8213;SDS011;4148;47.974;7.824;2023-07-29T05:31:05;2.90;;;1.87;;
8213;SDS011;4148;47.974;7.824;2023-07-29T05:33:33;3.17;;;2.10;;
8213;SDS011;4148;47.974;7.824;2023-07-29T05:36:02;2.50;;;1.83;;
8213;SDS011;4148;47.974;7.824;2023-07-29T05:38:31;2.70;;;2.27;;
8213;SDS011;4148;47.974;7.824;2023-07-29T05:41:00;2.10;;;1.90;;
8213;SDS011;4148;47.974;7.824;2023-07-29T05:43:28;2.50;;;1.97;;
8213;SDS011;4148;47.974;7.824;2023-07-29T05:45:56;2.13;;;1.93;;
8213;SDS011;4148;47.974;7.824;2023-07-29T05:48:23;2.70;;;2.10;;
8213;SDS011;4148;47.974;7.824;2023-07-29T05:50:51;2.30;;;1.67;;
8213;SDS011;4148;47.974;7.824;2023-07-29T05:53:19;2.80;;;2.17;;
8213;SDS011;4148;47.974;7.824;2023-07-29T05:55:47;2.40;;;2.10;;
8213;SDS011;4148;47.974;7.824;2023-07-29T05:58:16;4.00;;;1.90;;
8213;SDS011;4148;47.974;7.824;2023-07-29T06:00:44;3.23;;;2.10;;
8213;SDS011;4148;47.974;7.824;2023-07-29T06:03:12;3.67;;;2.40;;
8213;SDS011;4148;47.974;7.824;2023-07-29T06:05:40;2.10;;;1.83;;
8213;SDS011;4148;47.974;7.824;2023-07-29T06:08:08;3.50;;;1.87;;
8213;SDS011;4148;47.974;7.824;2023-07-29T06:10:37;2.50;;;2.10;;
8213;SDS011;4148;47.974;7.824;2023-07-29T06:13:05;2.97;;;2.20;;
8213;SDS011;4148;47.974;7.824;2023-07-29T06:15:34;2.60;;;2.00;;
8213;SDS011;4148;47.974;7.824;2023-07-29T06:18:02;3.23;;;2.10;;
8213;SDS011;4148;47.974;7.824;2023-07-29T06:20:30;3.40;;;2.40;;
8213;SDS011;4148;47.974;7.824;2023-07-29T06:22:58;2.40;;;2.10;;
8213;SDS011;4148;47.974;7.824;2023-07-29T06:25:26;5.33;;;2.27;;
8213;SDS011;4148;47.974;7.824;2023-07-29T06:27:53;3.63;;;2.20;;
8213;SDS011;4148;47.974;7.824;2023-07-29T06:30:21;2.47;;;1.93;;
8213;SDS011;4148;47.974;7.824;2023-07-29T06:32:50;3.30;;;1.90;;
8213;SDS011;4148;47.974;7.824;2023-07-29T06:35:19;2.83;;;2.10;;
8213;SDS011;4148;47.974;7.824;2023-07-29T06:37:46;2.60;;;2.13;;
8213;SDS011;4148;47.974;7.824;2023-07-29T06:40:14;3.37;;;2.23;;
8213;SDS011;4148;47.974;7.824;2023-07-29T06:42:42;6.83;;;2.70;;
8213;SDS011;4148;47.974;7.824;2023-07-29T06:45:10;5.17;;;2.17;;
8213;SDS011;4148;47.974;7.824;2023-07-29T06:47:38;3.60;;;2.30;;
8213;SDS011;4148;47.974;7.824;2023-07-29T06:50:08;3.33;;;2.03;;
8213;SDS011;4148;47.974;7.824;2023-07-29T06:52:36;3.27;;;2.10;;
8213;SDS011;4148;47.974;7.824;2023-07-29T06:55:04;3.50;;;2.60;;
8213;SDS011;4148;47.974;7.824;2023-07-29T06:57:32;3.70;;;2.17;;
8213;SDS011;4148;47.974;7.824;2023-07-29T07:00:01;4.27;;;2.53;;
8213;SDS011;4148;47.974;7.824;2023-07-29T07:02:28;1.97;;;1.77;;
8213;SDS011;4148;47.974;7.824;2023-07-29T07:04:56;3.23;;;2.80;;
8213;SDS011;4148;47.974;7.824;2023-07-29T07:07:26;3.07;;;2.60;;
8213;SDS011;4148;47.974;7.824;2023-07-29T07:09:53;3.87;;;2.67;;
8213;SDS011;4148;47.974;7.824;2023-07-29T07:12:24;3.23;;;2.30;;
8213;SDS011;4148;47.974;7.824;2023-07-29T07:14:52;3.50;;;2.70;;
8213;SDS011;4148;47.974;7.824;2023-07-29T07:17:20;3.30;;;2.77;;
8213;SDS011;4148;47.974;7.824;2023-07-29T07:19:48;3.63;;;2.90;;
8213;SDS011;4148;47.974;7.824;2023-07-29T07:22:16;3.20;;;2.63;;
8213;SDS011;4148;47.974;7.824;2023-07-29T07:24:45;4.00;;;2.30;;
8213;SDS011;4148;47.974;7.824;2023-07-29T07:27:13;3.40;;;2.73;;
8213;SDS011;4148;47.974;7.824;2023-07-29T07:29:41;3.27;;;2.10;;
8213;SDS011;4148;47.974;7.824;2023-07-29T07:32:08;4.30;;;2.20;;
8213;SDS011;4148;47.974;7.824;2023-07-29T07:34:36;3.17;;;2.50;;
8213;SDS011;4148;47.974;7.824;2023-07-29T07:37:05;3.20;;;2.50;;
8213;SDS011;4148;47.974;7.824;2023-07-29T07:39:33;4.10;;;2.50;;
8213;SDS011;4148;47.974;7.824;2023-07-29T07:42:02;4.37;;;2.43;;
8213;SDS011;4148;47.974;7.824;2023-07-29T07:44:30;2.87;;;2.23;;
8213;SDS011;4148;47.974;7.824;2023-07-29T07:46:58;2.83;;;2.27;;
8213;SDS011;4148;47.974;7.824;2023-07-29T07:49:30;2.57;;;2.37;;
8213;SDS011;4148;47.974;7.824;2023-07-29T07:51:58;3.10;;;2.40;;
8213;SDS011;4148;47.974;7.824;2023-07-29T07:54:25;2.47;;;2.03;;
8213;SDS011;4148;47.974;7.824;2023-07-29T07:56:53;2.83;;;2.10;;
8213;SDS011;4148;47.974;7.824;2023-07-29T07:59:22;2.50;;;2.30;;
8213;SDS011;4148;47.974;7.824;2023-07-29T08:01:50;2.97;;;2.20;;
8213;SDS011;4148;47.974;7.824;2023-07-29T08:04:18;3.37;;;2.07;;
8213;SDS011;4148;47.974;7.824;2023-07-29T08:06:46;3.10;;;2.60;;
8213;SDS011;4148;47.974;7.824;2023-07-29T08:09:14;3.00;;;2.70;;
8213;SDS011;4148;47.974;7.824;2023-07-29T08:11:42;2.77;;;2.33;;
8213;SDS011;4148;47.974;7.824;2023-07-29T08:14:10;2.93;;;2.40;;
8213;SDS011;4148;47.974;7.824;2023-07-29T08:16:39;3.20;;;2.37;;
8213;SDS011;4148;47.974;7.824;2023-07-29T08:19:07;4.70;;;2.73;;
8213;SDS011;4148;47.974;7.824;2023-07-29T08:21:36;3.50;;;2.57;;
8213;SDS011;4148;47.974;7.824;2023-07-29T08:24:04;6.20;;;2.60;;
8213;SDS011;4148;47.974;7.824;2023-07-29T08:26:33;2.80;;;2.50;;
8213;SDS011;4148;47.974;7.824;2023-07-29T08:29:01;3.67;;;2.93;;
8213;SDS011;4148;47.974;7.824;2023-07-29T08:31:29;3.77;;;2.67;;
8213;SDS011;4148;47.974;7.824;2023-07-29T08:34:01;4.47;;;3.30;;
8213;SDS011;4148;47.974;7.824;2023-07-29T08:36:29;3.20;;;2.57;;
8213;SDS011;4148;47.974;7.824;2023-07-29T08:38:56;5.90;;;2.90;;
8213;SDS011;4148;47.974;7.824;2023-07-29T08:41:25;4.30;;;2.80;;
8213;SDS011;4148;47.974;7.824;2023-07-29T08:43:56;4.47;;;2.27;;
8213;SDS011;4148;47.974;7.824;2023-07-29T08:46:29;3.40;;;2.67;;
8213;SDS011;4148;47.974;7.824;2023-07-29T08:48:57;5.43;;;2.97;;
8213;SDS011;4148;47.974;7.824;2023-07-29T08:51:28;3.20;;;2.60;;
8213;SDS011;4148;47.974;7.824;2023-07-29T08:53:58;3.30;;;2.20;;
8213;SDS011;4148;47.974;7.824;2023-07-29T08:56:26;2.87;;;2.43;;
8213;SDS011;4148;47.974;7.824;2023-07-29T08:58:56;2.50;;;2.30;;
8213;SDS011;4148;47.974;7.824;2023-07-29T09:01:26;2.87;;;2.57;;
8213;SDS011;4148;47.974;7.824;2023-07-29T09:03:56;4.30;;;2.80;;
8213;SDS011;4148;47.974;7.824;2023-07-29T09:06:26;2.77;;;2.50;;
8213;SDS011;4148;47.974;7.824;2023-07-29T09:08:54;3.00;;;2.70;;
8213;SDS011;4148;47.974;7.824;2023-07-29T09:11:23;4.07;;;2.47;;
8213;SDS011;4148;47.974;7.824;2023-07-29T09:13:51;2.80;;;2.50;;
8213;SDS011;4148;47.974;7.824;2023-07-29T09:16:19;3.97;;;2.80;;
8213;SDS011;4148;47.974;7.824;2023-07-29T09:18:47;3.10;;;2.60;;
8213;SDS011;4148;47.974;7.824;2023-07-29T09:21:16;3.33;;;2.80;;
8213;SDS011;4148;47.974;7.824;2023-07-29T09:23:46;2.47;;;2.27;;
8213;SDS011;4148;47.974;7.824;2023-07-29T09:26:14;3.90;;;3.33;;
8213;SDS011;4148;47.974;7.824;2023-07-29T09:28:51;4.20;;;3.17;;
8213;SDS011;4148;47.974;7.824;2023-07-29T09:31:20;4.57;;;3.30;;
8213;SDS011;4148;47.974;7.824;2023-07-29T09:33:49;3.30;;;2.93;;
8213;SDS011;4148;47.974;7.824;2023-07-29T09:36:17;4.17;;;3.47;;
8213;SDS011;4148;47.974;7.824;2023-07-29T09:38:45;2.70;;;2.50;;
8213;SDS011;4148;47.974;7.824;2023-07-29T09:41:15;4.53;;;3.40;;
8213;SDS011;4148;47.974;7.824;2023-07-29T09:43:43;4.33;;;3.13;;
8213;SDS011;4148;47.974;7.824;2023-07-29T09:46:11;5.70;;;3.97;;
8213;SDS011;4148;47.974;7.824;2023-07-29T09:48:39;4.03;;;3.47;;
8213;SDS011;4148;47.974;7.824;2023-07-29T09:51:11;3.90;;;2.87;;
8213;SDS011;4148;47.974;7.824;2023-07-29T09:53:41;4.77;;;3.53;;
8213;SDS011;4148;47.974;7.824;2023-07-29T09:56:14;6.00;;;3.33;;
8213;SDS011;4148;47.974;7.824;2023-07-29T09:58:42;4.40;;;3.67;;
8213;SDS011;4148;47.974;7.824;2023-07-29T10:01:12;7.30;;;3.43;;
8213;SDS011;4148;47.974;7.824;2023-07-29T10:03:41;3.73;;;3.43;;
8213;SDS011;4148;47.974;7.824;2023-07-29T10:06:11;4.23;;;3.30;;
8213;SDS011;4148;47.974;7.824;2023-07-29T10:08:42;3.90;;;2.90;;
8213;SDS011;4148;47.974;7.824;2023-07-29T10:11:10;5.50;;;3.47;;
8213;SDS011;4148;47.974;7.824;2023-07-29T10:13:40;3.33;;;3.03;;
8213;SDS011;4148;47.974;7.824;2023-07-29T10:16:18;3.47;;;3.17;;
8213;SDS011;4148;47.974;7.824;2023-07-29T10:18:46;2.90;;;2.60;;
8213;SDS011;4148;47.974;7.824;2023-07-29T10:21:14;4.23;;;3.83;;
8213;SDS011;4148;47.974;7.824;2023-07-29T10:23:43;3.40;;;3.10;;
8213;SDS011;4148;47.974;7.824;2023-07-29T10:26:16;5.77;;;3.40;;
8213;SDS011;4148;47.974;7.824;2023-07-29T10:28:48;5.83;;;3.07;;
8213;SDS011;4148;47.974;7.824;2023-07-29T10:31:21;4.00;;;3.30;;
8213;SDS011;4148;47.974;7.824;2023-07-29T10:33:50;4.00;;;2.80;;
8213;SDS011;4148;47.974;7.824;2023-07-29T10:36:18;3.90;;;3.50;;
8213;SDS011;4148;47.974;7.824;2023-07-29T10:38:48;4.47;;;3.00;;
8213;SDS011;4148;47.974;7.824;2023-07-29T10:41:17;4.03;;;3.27;;
8213;SDS011;4148;47.974;7.824;2023-07-29T10:43:44;3.27;;;2.90;;
8213;SDS011;4148;47.974;7.824;2023-07-29T10:46:17;4.13;;;3.17;;
8213;SDS011;4148;47.974;7.824;2023-07-29T10:48:51;3.70;;;3.07;;
8213;SDS011;4148;47.974;7.824;2023-07-29T10:51:27;4.03;;;3.50;;
8213;SDS011;4148;47.974;7.824;2023-07-29T10:53:57;3.50;;;3.17;;
8213;SDS011;4148;47.974;7.824;2023-07-29T10:56:26;6.40;;;3.40;;
8213;SDS011;4148;47.974;7.824;2023-07-29T10:58:56;3.30;;;3.00;;
8213;SDS011;4148;47.974;7.824;2023-07-29T11:01:31;4.80;;;3.07;;
8213;SDS011;4148;47.974;7.824;2023-07-29T11:09:56;3.50;;;3.13;;
8213;SDS011;4148;47.974;7.824;2023-07-29T11:15:18;5.27;;;2.73;;
8213;SDS011;4148;47.974;7.824;2023-07-29T11:17:52;3.17;;;2.80;;
8213;SDS011;4148;47.974;7.824;2023-07-29T11:20:21;3.10;;;2.63;;
8213;SDS011;4148;47.974;7.824;2023-07-29T11:22:51;2.93;;;2.73;;
8213;SDS011;4148;47.974;7.824;2023-07-29T11:25:21;3.17;;;2.87;;
8213;SDS011;4148;47.974;7.824;2023-07-29T11:27:51;3.07;;;2.77;;
8213;SDS011;4148;47.974;7.824;2023-07-29T11:30:20;2.93;;;2.53;;
8213;SDS011;4148;47.974;7.824;2023-07-29T11:32:48;4.43;;;2.87;;
8213;SDS011;4148;47.974;7.824;2023-07-29T11:35:18;3.27;;;2.57;;
8213;SDS011;4148;47.974;7.824;2023-07-29T11:37:48;2.77;;;2.57;;
8213;SDS011;4148;47.974;7.824;2023-07-29T11:40:17;2.73;;;2.30;;
8213;SDS011;4148;47.974;7.824;2023-07-29T11:42:47;2.67;;;2.47;;
8213;SDS011;4148;47.974;7.824;2023-07-29T11:45:16;2.93;;;2.63;;
8213;SDS011;4148;47.974;7.824;2023-07-29T11:47:45;2.63;;;2.30;;
8213;SDS011;4148;47.974;7.824;2023-07-29T11:50:13;2.83;;;2.60;;
8213;SDS011;4148;47.974;7.824;2023-07-29T11:52:44;4.13;;;2.43;;
8213;SDS011;4148;47.974;7.824;2023-07-29T11:55:13;2.83;;;2.37;;
8213;SDS011;4148;47.974;7.824;2023-07-29T11:57:42;2.53;;;2.23;;
8213;SDS011;4148;47.974;7.824;2023-07-29T12:00:11;3.03;;;2.40;;
8213;SDS011;4148;47.974;7.824;2023-07-29T12:02:41;2.33;;;2.13;;
8213;SDS011;4148;47.974;7.824;2023-07-29T12:05:11;2.50;;;2.30;;
8213;SDS011;4148;47.974;7.824;2023-07-29T12:07:41;3.30;;;2.40;;
8213;SDS011;4148;47.974;7.824;2023-07-29T12:10:11;3.30;;;2.73;;
8213;SDS011;4148;47.974;7.824;2023-07-29T12:12:43;2.90;;;2.47;;
8213;SDS011;4148;47.974;7.824;2023-07-29T12:15:13;4.53;;;2.77;;
8213;SDS011;4148;47.974;7.824;2023-07-29T12:17:51;3.60;;;2.73;;
8213;SDS011;4148;47.974;7.824;2023-07-29T12:20:20;3.77;;;2.50;;
8213;SDS011;4148;47.974;7.824;2023-07-29T12:22:52;2.93;;;2.63;;
8213;SDS011;4148;47.974;7.824;2023-07-29T12:25:21;3.60;;;2.60;;
8213;SDS011;4148;47.974;7.824;2023-07-29T12:27:49;2.97;;;2.63;;
8213;SDS011;4148;47.974;7.824;2023-07-29T12:30:20;2.87;;;2.57;;
8213;SDS011;4148;47.974;7.824;2023-07-29T12:32:48;5.67;;;2.63;;
8213;SDS011;4148;47.974;7.824;2023-07-29T12:35:16;2.80;;;2.57;;
8213;SDS011;4148;47.974;7.824;2023-07-29T12:37:44;3.47;;;2.47;;
8213;SDS011;4148;47.974;7.824;2023-07-29T12:40:21;3.20;;;2.70;;
8213;SDS011;4148;47.974;7.824;2023-07-29T12:42:50;3.00;;;2.70;;
8213;SDS011;4148;47.974;7.824;2023-07-29T12:45:18;3.57;;;2.83;;
8213;SDS011;4148;47.974;7.824;2023-07-29T12:47:51;2.83;;;2.30;;
8213;SDS011;4148;47.974;7.824;2023-07-29T12:50:19;3.40;;;2.47;;
8213;SDS011;4148;47.974;7.824;2023-07-29T12:52:47;2.87;;;2.43;;
8213;SDS011;4148;47.974;7.824;2023-07-29T12:55:15;2.93;;;2.63;;
8213;SDS011;4148;47.974;7.824;2023-07-29T12:57:49;3.30;;;2.33;;
8213;SDS011;4148;47.974;7.824;2023-07-29T13:00:17;2.57;;;2.30;;
8213;SDS011;4148;47.974;7.824;2023-07-29T13:02:45;2.97;;;2.60;;
8213;SDS011;4148;47.974;7.824;2023-07-29T13:05:13;2.40;;;2.00;;
8213;SDS011;4148;47.974;7.824;2023-07-29T13:07:41;5.80;;;2.70;;
8213;SDS011;4148;47.974;7.824;2023-07-29T13:10:10;3.47;;;2.50;;
8213;SDS011;4148;47.974;7.824;2023-07-29T13:12:38;2.33;;;2.13;;
8213;SDS011;4148;47.974;7.824;2023-07-29T13:15:08;3.93;;;2.60;;
8213;SDS011;4148;47.974;7.824;2023-07-29T13:17:36;4.47;;;3.10;;
8213;SDS011;4148;47.974;7.824;2023-07-29T13:20:06;3.10;;;2.80;;
8213;SDS011;4148;47.974;7.824;2023-07-29T13:22:34;2.93;;;2.40;;
8213;SDS011;4148;47.974;7.824;2023-07-29T13:25:02;3.60;;;2.30;;
8213;SDS011;4148;47.974;7.824;2023-07-29T13:27:31;3.50;;;3.00;;
8213;SDS011;4148;47.974;7.824;2023-07-29T13:29:59;3.40;;;2.83;;
8213;SDS011;4148;47.974;7.824;2023-07-29T13:32:28;2.70;;;2.27;;
8213;SDS011;4148;47.974;7.824;2023-07-29T13:34:56;2.97;;;2.50;;
8213;SDS011;4148;47.974;7.824;2023-07-29T13:37:24;2.77;;;2.47;;
8213;SDS011;4148;47.974;7.824;2023-07-29T13:39:51;3.87;;;3.10;;
8213;SDS011;4148;47.974;7.824;2023-07-29T13:42:19;3.70;;;2.93;;
8213;SDS011;4148;47.974;7.824;2023-07-29T13:44:47;3.10;;;2.80;;
8213;SDS011;4148;47.974;7.824;2023-07-29T13:47:15;2.40;;;2.20;;
8213;SDS011;4148;47.974;7.824;2023-07-29T13:49:44;3.03;;;2.70;;
8213;SDS011;4148;47.974;7.824;2023-07-29T13:52:13;3.13;;;2.20;;
8213;SDS011;4148;47.974;7.824;2023-07-29T13:54:41;4.00;;;2.67;;
8213;SDS011;4148;47.974;7.824;2023-07-29T13:57:09;3.10;;;2.80;;
8213;SDS011;4148;47.974;7.824;2023-07-29T13:59:37;3.40;;;2.83;;
8213;SDS011;4148;47.974;7.824;2023-07-29T14:02:05;3.57;;;2.70;;
8213;SDS011;4148;47.974;7.824;2023-07-29T14:04:33;3.40;;;2.80;;
8213;SDS011;4148;47.974;7.824;2023-07-29T14:07:03;2.90;;;2.50;;
8213;SDS011;4148;47.974;7.824;2023-07-29T14:09:31;3.30;;;2.70;;
8213;SDS011;4148;47.974;7.824;2023-07-29T14:11:59;2.87;;;2.57;;
8213;SDS011;4148;47.974;7.824;2023-07-29T14:14:27;3.13;;;2.83;;
8213;SDS011;4148;47.974;7.824;2023-07-29T14:16:55;4.67;;;2.97;;
8213;SDS011;4148;47.974;7.824;2023-07-29T14:19:23;3.73;;;2.57;;
8213;SDS011;4148;47.974;7.824;2023-07-29T14:21:50;3.93;;;3.10;;
8213;SDS011;4148;47.974;7.824;2023-07-29T14:24:20;10.03;;;3.67;;
8213;SDS011;4148;47.974;7.824;2023-07-29T14:26:49;3.60;;;3.10;;
8213;SDS011;4148;47.974;7.824;2023-07-29T14:29:17;4.30;;;3.20;;
8213;SDS011;4148;47.974;7.824;2023-07-29T14:31:44;8.07;;;4.10;;
8213;SDS011;4148;47.974;7.824;2023-07-29T14:34:12;4.40;;;3.20;;
8213;SDS011;4148;47.974;7.824;2023-07-29T14:36:40;5.47;;;3.40;;
8213;SDS011;4148;47.974;7.824;2023-07-29T14:39:08;5.20;;;3.17;;
8213;SDS011;4148;47.974;7.824;2023-07-29T14:41:39;4.20;;;3.30;;
8213;SDS011;4148;47.974;7.824;2023-07-29T14:44:06;3.70;;;3.27;;
8213;SDS011;4148;47.974;7.824;2023-07-29T14:46:34;4.37;;;3.17;;
8213;SDS011;4148;47.974;7.824;2023-07-29T14:49:03;4.27;;;3.10;;
8213;SDS011;4148;47.974;7.824;2023-07-29T14:51:30;4.63;;;3.30;;
8213;SDS011;4148;47.974;7.824;2023-07-29T14:53:58;3.80;;;3.40;;
8213;SDS011;4148;47.974;7.824;2023-07-29T14:56:26;5.37;;;3.30;;
8213;SDS011;4148;47.974;7.824;2023-07-29T14:58:55;5.90;;;4.13;;
8213;SDS011;4148;47.974;7.824;2023-07-29T15:01:23;4.70;;;4.13;;
8213;SDS011;4148;47.974;7.824;2023-07-29T15:03:51;5.13;;;3.70;;
8213;SDS011;4148;47.974;7.824;2023-07-29T15:06:19;5.23;;;3.30;;
8213;SDS011;4148;47.974;7.824;2023-07-29T15:08:47;3.73;;;3.03;;
8213;SDS011;4148;47.974;7.824;2023-07-29T15:11:15;4.70;;;3.70;;
8213;SDS011;4148;47.974;7.824;2023-07-29T15:13:43;3.87;;;3.43;;
8213;SDS011;4148;47.974;7.824;2023-07-29T15:16:12;3.50;;;3.20;;
8213;SDS011;4148;47.974;7.824;2023-07-29T15:18:40;5.20;;;3.10;;
8213;SDS011;4148;47.974;7.824;2023-07-29T15:21:08;3.70;;;2.93;;
8213;SDS011;4148;47.974;7.824;2023-07-29T15:23:36;4.90;;;3.33;;
8213;SDS011;4148;47.974;7.824;2023-07-29T15:26:03;3.90;;;3.50;;
8213;SDS011;4148;47.974;7.824;2023-07-29T15:28:31;3.57;;;3.27;;
8213;SDS011;4148;47.974;7.824;2023-07-29T15:30:59;3.60;;;2.70;;
8213;SDS011;4148;47.974;7.824;2023-07-29T15:33:29;4.10;;;3.53;;